Time;durP1;ratioP1;P1;durP2;ratioP2;P2;SDS_P1;SDS_P2;PMS_P1;PMS_P2;Temp;Humidity;BMP_temperature;BMP_pressure;BME280_temperature;BME280_humidity;BME280_pressure;Samples;Min_cycle;Max_cycle;Signal;HPM_P1;HPM_P2
2022/09/02 00:01:01;;;;;;;7.65;2.65;;;;;;;;;;5010346;28;20044;-87
2022/09/02 00:03:33;;;;;;;7.22;3.00;;;;;;;;;;5021181;28;20053;-85
2022/09/02 00:06:00;;;;;;;5.07;2.45;;;;;;;;;;5044963;28;20053;-86
2022/09/02 00:08:27;;;;;;;6.22;2.60;;;;;;;;;;5017067;28;20522;-86
2022/09/02 00:10:54;;;;;;;5.63;2.45;;;;;;;;;;5034792;28;20529;-86
2022/09/02 00:13:21;;;;;;;4.50;2.35;;;;;;;;;;5035720;28;20041;-85
2022/09/02 00:15:47;;;;;;;3.97;2.58;;;;;;;;;;5018566;28;20053;-85
2022/09/02 00:18:15;;;;;;;3.70;2.38;;;;;;;;;;5034758;28;20144;-85
2022/09/02 00:20:44;;;;;;;8.05;3.00;;;;;;;;;;5018189;28;20059;-84
2022/09/02 00:23:12;;;;;;;6.35;3.25;;;;;;;;;;5026465;28;20069;-86
2022/09/02 00:25:39;;;;;;;5.47;3.15;;;;;;;;;;5022104;28;20065;-86
2022/09/02 00:28:05;;;;;;;4.63;2.63;;;;;;;;;;5021084;28;20076;-86
2022/09/02 00:30:33;;;;;;;4.75;3.00;;;;;;;;;;5039916;28;20073;-85
2022/09/02 00:33:00;;;;;;;5.40;3.03;;;;;;;;;;5039640;28;20064;-85
2022/09/02 00:35:28;;;;;;;5.68;2.80;;;;;;;;;;5022124;28;20465;-86
2022/09/02 00:43:07;;;;;;;6.20;3.40;;;;;;;;;;5023227;28;20084;-77
2022/09/02 00:45:34;;;;;;;6.47;3.45;;;;;;;;;;5026101;28;20049;-78
2022/09/02 00:48:01;;;;;;;8.40;3.22;;;;;;;;;;5025378;28;20054;-78
2022/09/02 00:50:29;;;;;;;4.10;2.80;;;;;;;;;;5024453;28;20046;-76
2022/09/02 00:52:59;;;;;;;4.88;2.83;;;;;;;;;;5024545;28;20053;-79
2022/09/02 00:55:28;;;;;;;6.50;2.80;;;;;;;;;;5037839;28;20057;-77
2022/09/02 00:57:58;;;;;;;4.30;2.70;;;;;;;;;;5042519;28;20060;-78
2022/09/02 01:00:27;;;;;;;5.85;2.72;;;;;;;;;;5040627;28;20112;-77
2022/09/02 01:03:04;;;;;;;5.32;2.28;;;;;;;;;;5014150;28;20454;-78
2022/09/02 01:05:32;;;;;;;5.32;2.97;;;;;;;;;;5016524;28;20073;-79
2022/09/02 01:07:59;;;;;;;5.28;2.70;;;;;;;;;;5021915;28;20073;-79
2022/09/02 01:10:27;;;;;;;8.27;2.97;;;;;;;;;;5004657;28;20052;-77
2022/09/02 01:12:56;;;;;;;4.78;2.70;;;;;;;;;;5024549;28;20049;-78
2022/09/02 01:15:29;;;;;;;5.53;2.80;;;;;;;;;;5026894;28;20057;-77
2022/09/02 01:17:55;;;;;;;6.97;2.65;;;;;;;;;;5022339;28;20054;-80
2022/09/02 01:20:23;;;;;;;5.30;2.50;;;;;;;;;;5022443;28;20046;-78
2022/09/02 01:22:51;;;;;;;5.95;2.80;;;;;;;;;;5025616;28;20037;-77
2022/09/02 01:25:21;;;;;;;5.47;3.20;;;;;;;;;;5035820;28;20040;-78
2022/09/02 01:27:47;;;;;;;4.25;2.97;;;;;;;;;;5029700;28;20076;-78
2022/09/02 01:30:17;;;;;;;5.47;3.22;;;;;;;;;;5029178;28;20065;-78
2022/09/02 01:32:46;;;;;;;4.78;3.00;;;;;;;;;;5017033;28;20058;-78
2022/09/02 01:35:12;;;;;;;6.22;3.03;;;;;;;;;;5029091;28;20118;-79
2022/09/02 01:37:39;;;;;;;4.53;2.67;;;;;;;;;;5029758;28;20046;-80
2022/09/02 01:40:20;;;;;;;3.92;2.40;;;;;;;;;;5028249;28;20050;-77
2022/09/02 01:42:52;;;;;;;4.85;2.88;;;;;;;;;;5028912;28;20103;-80
2022/09/02 01:45:18;;;;;;;3.58;2.50;;;;;;;;;;5030061;28;20046;-78
2022/09/02 01:47:45;;;;;;;5.95;2.45;;;;;;;;;;5028855;28;20116;-78
2022/09/02 01:50:11;;;;;;;3.40;2.50;;;;;;;;;;5028454;28;20660;-79
2022/09/02 01:52:38;;;;;;;5.82;2.20;;;;;;;;;;5028713;28;20054;-80
2022/09/02 01:55:05;;;;;;;3.83;2.67;;;;;;;;;;5029785;28;20181;-79
2022/09/02 01:57:31;;;;;;;7.35;2.65;;;;;;;;;;5027539;28;20054;-79
2022/09/02 02:00:00;;;;;;;7.43;2.53;;;;;;;;;;5028719;28;20060;-79
2022/09/02 02:02:27;;;;;;;5.25;2.88;;;;;;;;;;5028213;28;20295;-78
2022/09/02 02:04:54;;;;;;;6.38;3.00;;;;;;;;;;5030336;28;20046;-77
2022/09/02 02:07:21;;;;;;;4.13;3.00;;;;;;;;;;5029346;28;20049;-77
2022/09/02 02:09:48;;;;;;;5.78;3.63;;;;;;;;;;5029077;28;20058;-78
2022/09/02 02:12:14;;;;;;;4.70;3.25;;;;;;;;;;5029593;28;20076;-79
2022/09/02 02:14:44;;;;;;;8.50;3.40;;;;;;;;;;5029768;28;20053;-80
2022/09/02 02:17:10;;;;;;;5.47;3.30;;;;;;;;;;5029976;28;20049;-79
2022/09/02 02:19:36;;;;;;;6.20;3.28;;;;;;;;;;5027293;28;20114;-79
2022/09/02 02:22:03;;;;;;;8.38;3.00;;;;;;;;;;5029156;28;20135;-78
2022/09/02 02:24:32;;;;;;;5.70;2.85;;;;;;;;;;5031420;28;20049;-77
2022/09/02 02:26:59;;;;;;;5.38;3.35;;;;;;;;;;5014542;28;20038;-78
2022/09/02 02:29:25;;;;;;;4.07;2.88;;;;;;;;;;5034391;28;20041;-78
2022/09/02 02:31:54;;;;;;;7.30;3.00;;;;;;;;;;5029716;28;20042;-80
2022/09/02 02:34:21;;;;;;;5.55;3.28;;;;;;;;;;5025455;28;20046;-77
2022/09/02 02:36:47;;;;;;;6.60;3.60;;;;;;;;;;5027170;28;20058;-78
2022/09/02 02:39:14;;;;;;;8.20;3.60;;;;;;;;;;5026689;28;20054;-78
2022/09/02 02:41:40;;;;;;;8.98;3.78;;;;;;;;;;5027060;28;20129;-79
2022/09/02 02:44:10;;;;;;;5.88;4.05;;;;;;;;;;5027472;28;20050;-78
2022/09/02 02:46:36;;;;;;;9.48;3.78;;;;;;;;;;5027233;28;20111;-77
2022/09/02 02:49:04;;;;;;;6.78;3.88;;;;;;;;;;5025647;28;20046;-77
2022/09/02 02:51:31;;;;;;;5.85;3.72;;;;;;;;;;5025624;28;20081;-78
2022/09/02 02:53:58;;;;;;;4.65;3.40;;;;;;;;;;5025497;28;20050;-79
2022/09/02 02:56:25;;;;;;;6.75;3.60;;;;;;;;;;5009158;28;20089;-78
2022/09/02 02:58:51;;;;;;;5.47;3.63;;;;;;;;;;5008670;28;20157;-78
2022/09/02 03:01:17;;;;;;;7.80;3.42;;;;;;;;;;5027456;28;20069;-78
2022/09/02 03:03:44;;;;;;;6.03;3.70;;;;;;;;;;5024686;28;20441;-78
2022/09/02 03:06:11;;;;;;;6.10;3.65;;;;;;;;;;5027347;28;20056;-78
2022/09/02 03:08:37;;;;;;;5.30;3.47;;;;;;;;;;5025578;28;20041;-79
2022/09/02 03:11:05;;;;;;;6.97;3.88;;;;;;;;;;5026521;28;20046;-79
2022/09/02 03:13:33;;;;;;;5.32;3.80;;;;;;;;;;5025627;28;20042;-78
2022/09/02 03:15:59;;;;;;;5.78;3.78;;;;;;;;;;5026784;28;20050;-79
2022/09/02 03:18:26;;;;;;;6.38;3.38;;;;;;;;;;5025115;28;20057;-79
2022/09/02 03:20:52;;;;;;;10.45;3.78;;;;;;;;;;5008589;28;20089;-79
2022/09/02 03:23:19;;;;;;;4.60;3.28;;;;;;;;;;5023955;28;20061;-77
2022/09/02 03:25:46;;;;;;;6.63;3.40;;;;;;;;;;5025698;28;20050;-77
2022/09/02 03:28:17;;;;;;;9.25;3.53;;;;;;;;;;5027238;28;20137;-78
2022/09/02 03:30:44;;;;;;;6.60;3.10;;;;;;;;;;5023069;28;20496;-79
2022/09/02 03:33:11;;;;;;;5.35;3.20;;;;;;;;;;5026308;28;20030;-79
2022/09/02 03:35:39;;;;;;;9.25;3.00;;;;;;;;;;5030358;28;20057;-78
2022/09/02 03:38:06;;;;;;;6.18;3.28;;;;;;;;;;5014148;28;20156;-77
2022/09/02 03:40:33;;;;;;;9.10;3.35;;;;;;;;;;5025968;28;20046;-79
2022/09/02 03:42:59;;;;;;;4.57;3.40;;;;;;;;;;5026752;28;20088;-79
2022/09/02 03:45:26;;;;;;;5.07;3.13;;;;;;;;;;5027312;28;20073;-78
2022/09/02 03:47:53;;;;;;;7.10;3.50;;;;;;;;;;5026616;28;20050;-78
2022/09/02 03:50:21;;;;;;;4.78;2.97;;;;;;;;;;5025796;28;20038;-79
2022/09/02 03:52:48;;;;;;;6.95;3.30;;;;;;;;;;5026836;28;20061;-78
2022/09/02 03:55:14;;;;;;;8.63;3.25;;;;;;;;;;5027253;28;20065;-79
2022/09/02 03:57:41;;;;;;;6.22;3.33;;;;;;;;;;5026567;28;20041;-79
2022/09/02 04:00:08;;;;;;;5.55;3.38;;;;;;;;;;5026772;28;20045;-77
2022/09/02 04:02:34;;;;;;;6.18;2.97;;;;;;;;;;5028306;28;20060;-77
2022/09/02 04:05:01;;;;;;;5.88;3.33;;;;;;;;;;5007576;28;20050;-78
2022/09/02 04:07:28;;;;;;;5.93;3.40;;;;;;;;;;5025507;28;20034;-79
2022/09/02 04:09:55;;;;;;;9.82;3.50;;;;;;;;;;5024321;28;20070;-78
2022/09/02 04:12:21;;;;;;;5.15;3.40;;;;;;;;;;5007866;28;20076;-79
2022/09/02 04:14:48;;;;;;;7.72;3.78;;;;;;;;;;5007083;28;20073;-78
2022/09/02 04:17:17;;;;;;;6.90;3.88;;;;;;;;;;5024744;28;20123;-79
2022/09/02 04:19:44;;;;;;;11.65;4.07;;;;;;;;;;5005462;28;20535;-80
2022/09/02 04:22:10;;;;;;;5.85;4.10;;;;;;;;;;4996832;28;20053;-79
2022/09/02 04:24:37;;;;;;;6.57;3.42;;;;;;;;;;5003276;28;20136;-79
2022/09/02 04:27:04;;;;;;;7.80;3.92;;;;;;;;;;5006048;28;20047;-77
2022/09/02 04:29:31;;;;;;;6.43;3.65;;;;;;;;;;5020163;28;20041;-79
2022/09/02 04:31:59;;;;;;;8.75;4.00;;;;;;;;;;5022635;28;20036;-78
2022/09/02 04:34:25;;;;;;;5.72;3.80;;;;;;;;;;4993898;28;20118;-78
2022/09/02 04:36:52;;;;;;;9.35;3.88;;;;;;;;;;5013301;28;20545;-78
2022/09/02 04:39:18;;;;;;;8.35;3.78;;;;;;;;;;5013512;28;20049;-78
2022/09/02 04:41:45;;;;;;;8.43;3.92;;;;;;;;;;5022857;28;20485;-79
2022/09/02 04:44:11;;;;;;;9.25;4.85;;;;;;;;;;5005775;28;20057;-79
2022/09/02 04:46:38;;;;;;;10.45;4.35;;;;;;;;;;5007149;28;20050;-78
2022/09/02 04:49:05;;;;;;;10.25;3.90;;;;;;;;;;5021383;28;20046;-79
2022/09/02 04:51:31;;;;;;;6.88;3.80;;;;;;;;;;5024655;28;20070;-79
2022/09/02 04:54:01;;;;;;;7.20;3.58;;;;;;;;;;5020568;28;20060;-78
2022/09/02 04:56:28;;;;;;;7.82;3.63;;;;;;;;;;5018499;28;20057;-80
2022/09/02 04:58:54;;;;;;;8.75;3.15;;;;;;;;;;5020942;28;20066;-79
2022/09/02 05:01:22;;;;;;;3.92;2.85;;;;;;;;;;5025158;28;20061;-80
2022/09/02 05:03:50;;;;;;;5.80;3.60;;;;;;;;;;5010582;28;20145;-83
2022/09/02 05:06:18;;;;;;;7.55;3.50;;;;;;;;;;5030399;28;20066;-85
2022/09/02 05:08:46;;;;;;;5.53;3.10;;;;;;;;;;5011615;28;20054;-84
2022/09/02 05:11:18;;;;;;;5.70;3.22;;;;;;;;;;5028414;28;20077;-84
2022/09/02 05:13:50;;;;;;;6.75;4.18;;;;;;;;;;5018036;28;20085;-83
2022/09/02 05:16:18;;;;;;;4.70;3.00;;;;;;;;;;5018563;28;20113;-82
2022/09/02 05:18:45;;;;;;;6.82;3.22;;;;;;;;;;5021365;28;20506;-84
2022/09/02 05:21:11;;;;;;;5.57;3.05;;;;;;;;;;5025428;28;20061;-83
2022/09/02 05:23:38;;;;;;;6.47;3.35;;;;;;;;;;5024431;28;20065;-84
2022/09/02 05:26:05;;;;;;;6.93;3.40;;;;;;;;;;5024804;28;20214;-83
2022/09/02 05:28:32;;;;;;;8.50;3.55;;;;;;;;;;5024082;28;20045;-83
2022/09/02 05:31:09;;;;;;;10.50;3.40;;;;;;;;;;5024827;28;20054;-85
2022/09/02 05:33:39;;;;;;;8.13;4.22;;;;;;;;;;5024565;28;20287;-82
2022/09/02 05:36:06;;;;;;;7.30;3.75;;;;;;;;;;5023088;28;20056;-85
2022/09/02 05:38:33;;;;;;;7.55;3.92;;;;;;;;;;5025593;28;20049;-82
2022/09/02 05:41:07;;;;;;;7.05;4.22;;;;;;;;;;5006635;28;20153;-84
2022/09/02 05:43:34;;;;;;;9.10;4.20;;;;;;;;;;5027300;28;20053;-84
2022/09/02 05:46:05;;;;;;;6.13;3.30;;;;;;;;;;5026410;28;20073;-83
2022/09/02 05:51:17;;;;;;;5.28;3.35;;;;;;;;;;5033894;28;20054;-83
2022/09/02 05:53:43;;;;;;;5.68;3.67;;;;;;;;;;5027512;28;20042;-83
2022/09/02 05:56:09;;;;;;;6.32;3.53;;;;;;;;;;5026965;28;20077;-84
2022/09/02 05:58:36;;;;;;;6.78;3.83;;;;;;;;;;5031462;28;20029;-84
2022/09/02 06:01:10;;;;;;;7.35;3.38;;;;;;;;;;5019718;28;20068;-85
2022/09/02 06:03:36;;;;;;;5.55;3.90;;;;;;;;;;5034433;28;20038;-80
2022/09/02 06:06:03;;;;;;;9.63;3.95;;;;;;;;;;5023782;28;20061;-82
2022/09/02 06:08:32;;;;;;;10.90;3.80;;;;;;;;;;5014628;28;20246;-82
2022/09/02 06:11:02;;;;;;;6.00;3.28;;;;;;;;;;5026197;28;20070;-83
2022/09/02 06:13:29;;;;;;;6.72;2.75;;;;;;;;;;5028583;28;20508;-82
2022/09/02 06:15:56;;;;;;;7.05;2.55;;;;;;;;;;5026319;28;20046;-80
2022/09/02 06:18:26;;;;;;;8.50;2.60;;;;;;;;;;5015624;28;20141;-82
2022/09/02 06:20:52;;;;;;;5.85;2.42;;;;;;;;;;5013258;28;20461;-78
2022/09/02 06:23:19;;;;;;;5.38;2.22;;;;;;;;;;5012171;28;20137;-79
2022/09/02 06:25:47;;;;;;;7.65;2.55;;;;;;;;;;5013654;28;20068;-80
2022/09/02 06:28:14;;;;;;;8.68;2.17;;;;;;;;;;5015009;28;20080;-83
2022/09/02 06:30:42;;;;;;;6.85;2.13;;;;;;;;;;4999924;28;20084;-79
2022/09/02 06:33:09;;;;;;;6.97;2.10;;;;;;;;;;5000294;28;20049;-79
2022/09/02 06:35:37;;;;;;;5.85;1.65;;;;;;;;;;5027516;28;20050;-84
2022/09/02 06:38:04;;;;;;;5.45;2.00;;;;;;;;;;5025119;28;20138;-84
2022/09/02 06:40:30;;;;;;;7.03;2.08;;;;;;;;;;5021895;28;20057;-84
2022/09/02 06:42:57;;;;;;;7.80;1.88;;;;;;;;;;5005690;28;20068;-80
2022/09/02 06:45:23;;;;;;;5.93;1.98;;;;;;;;;;5023322;28;20077;-81
2022/09/02 06:47:50;;;;;;;5.22;2.17;;;;;;;;;;5025260;28;20057;-83
2022/09/02 06:50:16;;;;;;;6.75;1.80;;;;;;;;;;5025454;28;20049;-81
2022/09/02 06:52:42;;;;;;;3.58;1.70;;;;;;;;;;5025988;28;20073;-79
2022/09/02 06:55:11;;;;;;;5.60;1.77;;;;;;;;;;5008643;28;20073;-80
2022/09/02 06:57:38;;;;;;;6.00;2.40;;;;;;;;;;5025895;28;20057;-82
2022/09/02 07:00:06;;;;;;;7.13;2.83;;;;;;;;;;5025747;28;20050;-80
2022/09/02 07:02:32;;;;;;;4.85;1.75;;;;;;;;;;5026672;28;20068;-82
2022/09/02 07:05:14;;;;;;;5.30;2.22;;;;;;;;;;5027187;28;20120;-82
2022/09/02 07:07:42;;;;;;;5.88;1.83;;;;;;;;;;5010640;28;20081;-79
2022/09/02 07:10:09;;;;;;;8.65;1.70;;;;;;;;;;5024298;28;20460;-83
2022/09/02 07:12:37;;;;;;;6.97;1.38;;;;;;;;;;5027512;28;20521;-82
2022/09/02 07:15:03;;;;;;;7.68;1.45;;;;;;;;;;5026722;28;20064;-80
2022/09/02 07:17:30;;;;;;;6.15;1.27;;;;;;;;;;5028389;28;20049;-83
2022/09/02 07:19:59;;;;;;;7.03;1.35;;;;;;;;;;5024851;28;20050;-81
2022/09/02 07:22:26;;;;;;;7.13;1.10;;;;;;;;;;5008657;28;20175;-80
2022/09/02 07:24:52;;;;;;;4.90;1.30;;;;;;;;;;5026182;28;20054;-82
2022/09/02 07:27:19;;;;;;;9.02;1.50;;;;;;;;;;5028146;28;20049;-83
2022/09/02 07:29:47;;;;;;;6.55;1.35;;;;;;;;;;5026660;28;20046;-80
2022/09/02 07:32:15;;;;;;;6.97;1.23;;;;;;;;;;5026357;28;20046;-82
2022/09/02 07:34:41;;;;;;;6.25;1.25;;;;;;;;;;5024763;28;20045;-84
2022/09/02 07:37:08;;;;;;;4.28;1.50;;;;;;;;;;5008285;28;20058;-82
2022/09/02 07:39:36;;;;;;;2.05;0.98;;;;;;;;;;5025863;28;20053;-81
2022/09/02 07:42:03;;;;;;;8.60;1.05;;;;;;;;;;5024115;28;20529;-81
2022/09/02 07:44:32;;;;;;;5.80;1.17;;;;;;;;;;5011901;28;20041;-80
2022/09/02 07:46:59;;;;;;;4.10;1.02;;;;;;;;;;5017547;28;20522;-82
2022/09/02 07:49:26;;;;;;;2.65;1.20;;;;;;;;;;5018492;28;20046;-83
2022/09/02 07:51:54;;;;;;;1.98;0.90;;;;;;;;;;5027120;28;20053;-80
2022/09/02 07:54:24;;;;;;;3.50;1.15;;;;;;;;;;5009587;28;20081;-82
2022/09/02 07:56:51;;;;;;;1.98;0.80;;;;;;;;;;5008749;28;20296;-82
2022/09/02 07:59:20;;;;;;;2.20;0.95;;;;;;;;;;5023302;28;20149;-80
2022/09/02 08:01:47;;;;;;;7.35;0.93;;;;;;;;;;5025636;28;20049;-79
2022/09/02 08:04:14;;;;;;;3.08;1.13;;;;;;;;;;5027318;28;20045;-82
2022/09/02 08:06:41;;;;;;;2.38;0.80;;;;;;;;;;5032247;28;20052;-81
2022/09/02 08:09:11;;;;;;;4.00;0.95;;;;;;;;;;5012015;28;20070;-81
2022/09/02 08:11:38;;;;;;;1.90;0.70;;;;;;;;;;5026287;28;20092;-79
2022/09/02 08:14:07;;;;;;;3.65;0.90;;;;;;;;;;5027473;28;20525;-81
2022/09/02 08:16:34;;;;;;;3.33;0.80;;;;;;;;;;5026355;28;20069;-83
2022/09/02 08:19:00;;;;;;;1.92;0.98;;;;;;;;;;5024578;28;20058;-82
2022/09/02 08:21:27;;;;;;;2.08;0.70;;;;;;;;;;5007755;28;20050;-80
2022/09/02 08:23:59;;;;;;;3.75;0.93;;;;;;;;;;5019798;28;20131;-80
2022/09/02 08:26:27;;;;;;;3.63;0.93;;;;;;;;;;5001143;28;20080;-83
2022/09/02 08:28:54;;;;;;;6.57;1.20;;;;;;;;;;5024704;28;20050;-82
2022/09/02 08:31:20;;;;;;;8.02;1.08;;;;;;;;;;5025910;28;20050;-82
2022/09/02 08:33:47;;;;;;;2.97;1.00;;;;;;;;;;5026518;28;20046;-80
2022/09/02 08:36:14;;;;;;;5.97;1.10;;;;;;;;;;5028496;28;20080;-82
2022/09/02 08:38:40;;;;;;;2.00;1.08;;;;;;;;;;5025533;28;20079;-81
2022/09/02 08:41:11;;;;;;;3.05;0.90;;;;;;;;;;5026474;28;20053;-83
2022/09/02 08:43:42;;;;;;;2.58;1.00;;;;;;;;;;5029378;28;20058;-82
2022/09/02 08:46:10;;;;;;;5.10;1.15;;;;;;;;;;5031134;28;20065;-81
2022/09/02 08:48:39;;;;;;;4.30;1.00;;;;;;;;;;5027314;28;20053;-84
2022/09/02 08:51:11;;;;;;;2.08;0.80;;;;;;;;;;5027728;28;20073;-83
2022/09/02 08:53:45;;;;;;;5.78;1.10;;;;;;;;;;5026370;28;20042;-81
2022/09/02 08:56:14;;;;;;;2.45;0.95;;;;;;;;;;5026810;28;20050;-82
2022/09/02 08:58:45;;;;;;;1.33;0.82;;;;;;;;;;5024323;28;20054;-79
2022/09/02 09:01:23;;;;;;;2.70;0.80;;;;;;;;;;5025293;28;20092;-81
2022/09/02 09:04:12;;;;;;;3.55;0.75;;;;;;;;;;5028248;28;20050;-83
2022/09/02 09:06:58;;;;;;;2.50;0.80;;;;;;;;;;5021181;28;20050;-83
2022/09/02 09:09:40;;;;;;;3.85;0.80;;;;;;;;;;5011137;28;20050;-83
2022/09/02 09:12:30;;;;;;;0.85;0.52;;;;;;;;;;5011445;28;20069;-83
2022/09/02 09:15:02;;;;;;;2.33;0.70;;;;;;;;;;5030364;28;20061;-81
2022/09/02 09:17:47;;;;;;;2.63;0.73;;;;;;;;;;5030947;28;20053;-83
2022/09/02 09:20:21;;;;;;;1.70;0.60;;;;;;;;;;5030595;28;20042;-82
2022/09/02 09:22:49;;;;;;;3.33;0.90;;;;;;;;;;5013451;28;20113;-83
2022/09/02 09:25:16;;;;;;;5.57;0.90;;;;;;;;;;5032230;28;20045;-83
2022/09/02 09:27:46;;;;;;;3.05;0.60;;;;;;;;;;5030140;28;20042;-82
2022/09/02 09:30:13;;;;;;;1.55;0.80;;;;;;;;;;5033425;28;20045;-86
2022/09/02 09:32:58;;;;;;;1.00;0.65;;;;;;;;;;5036705;28;20057;-85
2022/09/02 09:35:27;;;;;;;2.15;0.73;;;;;;;;;;5035621;28;20053;-85
2022/09/02 09:37:54;;;;;;;3.85;0.80;;;;;;;;;;5028631;28;20049;-82
2022/09/02 09:40:23;;;;;;;1.10;0.70;;;;;;;;;;5028625;28;20065;-82
2022/09/02 09:42:54;;;;;;;1.73;0.63;;;;;;;;;;5030463;28;20065;-81
2022/09/02 09:45:28;;;;;;;3.72;0.73;;;;;;;;;;5030795;28;20041;-82
2022/09/02 09:48:10;;;;;;;2.47;0.82;;;;;;;;;;5031361;28;20053;-83
2022/09/02 09:50:36;;;;;;;4.72;0.60;;;;;;;;;;5025080;28;20100;-82
2022/09/02 09:53:19;;;;;;;2.22;0.73;;;;;;;;;;5022995;28;20054;-83
2022/09/02 09:55:56;;;;;;;1.65;0.65;;;;;;;;;;5017404;28;20046;-82
2022/09/02 09:58:29;;;;;;;2.47;0.60;;;;;;;;;;5028223;28;20058;-82
2022/09/02 10:00:57;;;;;;;1.25;0.60;;;;;;;;;;5028497;28;20053;-83
2022/09/02 10:03:25;;;;;;;4.80;0.75;;;;;;;;;;5010462;28;20049;-82
2022/09/02 10:06:15;;;;;;;1.63;0.60;;;;;;;;;;5027012;28;20066;-83
2022/09/02 10:08:49;;;;;;;0.93;0.40;;;;;;;;;;5015461;28;20054;-82
2022/09/02 10:11:27;;;;;;;3.78;0.65;;;;;;;;;;5018124;28;20045;-82
2022/09/02 10:14:01;;;;;;;2.10;0.50;;;;;;;;;;5025642;28;20030;-81
2022/09/02 10:16:42;;;;;;;1.02;0.50;;;;;;;;;;5010280;28;20045;-83
2022/09/02 10:19:33;;;;;;;1.38;0.40;;;;;;;;;;5030070;28;20030;-83
2022/09/02 10:22:20;;;;;;;1.40;0.50;;;;;;;;;;5010890;28;20266;-80
2022/09/02 10:25:06;;;;;;;4.07;0.73;;;;;;;;;;5021849;28;20068;-81
2022/09/02 10:27:39;;;;;;;2.47;0.50;;;;;;;;;;5015764;28;20050;-82
2022/09/02 10:30:06;;;;;;;1.50;0.50;;;;;;;;;;5009751;28;20074;-81
2022/09/02 10:32:51;;;;;;;3.45;0.65;;;;;;;;;;5013448;28;20041;-80
2022/09/02 10:35:35;;;;;;;3.70;0.80;;;;;;;;;;5018604;28;20453;-82
2022/09/02 10:38:11;;;;;;;3.30;0.52;;;;;;;;;;5023355;28;20105;-82
2022/09/02 10:40:51;;;;;;;3.47;0.80;;;;;;;;;;5014566;28;20125;-80
2022/09/02 10:43:27;;;;;;;6.75;0.60;;;;;;;;;;4997677;28;20074;-82
2022/09/02 10:45:56;;;;;;;1.27;0.50;;;;;;;;;;5014884;28;20508;-81
2022/09/02 10:48:49;;;;;;;3.28;0.88;;;;;;;;;;5014102;28;20137;-81
2022/09/02 10:51:24;;;;;;;4.28;0.70;;;;;;;;;;5013054;28;20508;-81
2022/09/02 10:53:50;;;;;;;1.83;0.75;;;;;;;;;;5017924;28;20121;-81
2022/09/02 10:56:25;;;;;;;1.85;0.57;;;;;;;;;;4998731;28;20073;-81
2022/09/02 10:58:58;;;;;;;3.33;0.70;;;;;;;;;;5001657;28;20077;-83
2022/09/02 11:01:27;;;;;;;2.75;0.65;;;;;;;;;;5023593;28;20360;-81
2022/09/02 11:04:06;;;;;;;1.70;0.73;;;;;;;;;;5004551;28;20053;-81
2022/09/02 11:06:38;;;;;;;5.43;0.60;;;;;;;;;;5022224;28;20042;-81
2022/09/02 11:09:30;;;;;;;1.40;0.60;;;;;;;;;;5009544;28;20045;-84
2022/09/02 11:12:06;;;;;;;2.92;0.63;;;;;;;;;;5027108;28;20076;-82
2022/09/02 11:14:36;;;;;;;5.25;0.70;;;;;;;;;;5024214;28;20052;-82
2022/09/02 11:17:08;;;;;;;6.03;0.80;;;;;;;;;;5026515;28;20056;-81
2022/09/02 11:20:01;;;;;;;1.65;0.65;;;;;;;;;;5025997;28;20119;-82
2022/09/02 11:22:43;;;;;;;1.70;0.70;;;;;;;;;;5021406;28;20077;-81
2022/09/02 11:25:12;;;;;;;2.95;0.63;;;;;;;;;;5025706;28;20046;-81
2022/09/02 11:27:47;;;;;;;3.67;0.70;;;;;;;;;;5027101;28;20053;-84
2022/09/02 11:30:15;;;;;;;2.75;0.55;;;;;;;;;;5012036;28;20038;-83
2022/09/02 11:32:42;;;;;;;2.03;0.70;;;;;;;;;;5028936;28;20042;-82
2022/09/02 11:35:11;;;;;;;3.58;0.77;;;;;;;;;;5013343;28;20100;-82
2022/09/02 11:38:10;;;;;;;3.55;1.00;;;;;;;;;;5026386;28;20081;-82
2022/09/02 11:40:52;;;;;;;0.98;0.57;;;;;;;;;;4992239;28;20050;-82
2022/09/02 11:43:49;;;;;;;1.90;0.60;;;;;;;;;;5026385;28;20122;-82
2022/09/02 11:46:29;;;;;;;3.90;0.70;;;;;;;;;;5027186;28;20100;-83
2022/09/02 11:48:56;;;;;;;3.40;0.63;;;;;;;;;;5025471;28;20046;-84
2022/09/02 11:51:35;;;;;;;1.75;0.60;;;;;;;;;;5026086;28;20042;-83
2022/09/02 11:54:03;;;;;;;1.30;0.77;;;;;;;;;;5027061;28;20037;-81
2022/09/02 11:56:35;;;;;;;2.85;0.70;;;;;;;;;;5025944;28;20048;-81
2022/09/02 11:59:02;;;;;;;2.53;0.70;;;;;;;;;;5023498;28;20085;-80
2022/09/02 12:01:32;;;;;;;3.38;0.88;;;;;;;;;;5026094;28;20080;-81
2022/09/02 12:04:04;;;;;;;1.88;0.60;;;;;;;;;;5028047;28;20100;-84
2022/09/02 12:07:11;;;;;;;4.35;0.90;;;;;;;;;;5020011;28;20060;-79
2022/09/02 12:09:47;;;;;;;1.83;0.75;;;;;;;;;;5005359;28;20058;-79
2022/09/02 12:12:33;;;;;;;4.32;0.80;;;;;;;;;;5004399;28;20266;-82
2022/09/02 12:15:02;;;;;;;2.70;0.60;;;;;;;;;;5028473;28;20049;-81
2022/09/02 12:17:36;;;;;;;3.35;0.60;;;;;;;;;;5026525;28;20042;-79
2022/09/02 12:20:04;;;;;;;3.50;0.68;;;;;;;;;;5020375;28;20088;-79
2022/09/02 12:22:31;;;;;;;3.20;0.77;;;;;;;;;;5024610;28;20138;-80
2022/09/02 12:25:00;;;;;;;1.25;0.65;;;;;;;;;;5010814;28;20045;-82
2022/09/02 12:27:35;;;;;;;3.20;0.68;;;;;;;;;;5032797;28;20044;-81
2022/09/02 12:30:06;;;;;;;5.03;0.82;;;;;;;;;;5027945;28;20081;-81
2022/09/02 12:32:45;;;;;;;3.20;0.90;;;;;;;;;;5026000;28;20509;-80
2022/09/02 12:35:12;;;;;;;3.58;0.70;;;;;;;;;;5026543;28;20041;-82
2022/09/02 12:37:50;;;;;;;2.60;0.80;;;;;;;;;;5027251;28;20058;-82
2022/09/02 12:40:23;;;;;;;2.38;0.90;;;;;;;;;;5028244;28;20058;-82
2022/09/02 12:42:55;;;;;;;2.85;0.80;;;;;;;;;;5022004;28;20054;-82
2022/09/02 12:45:23;;;;;;;5.07;1.08;;;;;;;;;;5022800;28;20050;-82
2022/09/02 12:48:06;;;;;;;3.70;0.80;;;;;;;;;;5006992;28;20073;-81
2022/09/02 12:50:53;;;;;;;2.65;0.90;;;;;;;;;;5023069;28;20121;-81
2022/09/02 12:53:25;;;;;;;1.65;0.82;;;;;;;;;;5022746;28;20066;-80
2022/09/02 12:56:00;;;;;;;4.93;0.70;;;;;;;;;;5015192;28;20049;-82
2022/09/02 12:58:30;;;;;;;4.80;0.80;;;;;;;;;;5020081;28;20081;-83
2022/09/02 13:01:04;;;;;;;2.88;0.90;;;;;;;;;;5027562;28;20049;-85
2022/09/02 13:03:37;;;;;;;0.90;0.70;;;;;;;;;;5029270;28;20033;-84
2022/09/02 13:06:12;;;;;;;7.07;0.60;;;;;;;;;;5023384;28;20072;-83
2022/09/02 13:08:45;;;;;;;3.60;0.80;;;;;;;;;;5008085;28;20054;-83
2022/09/02 13:11:30;;;;;;;4.15;0.77;;;;;;;;;;5023215;28;20065;-81
2022/09/02 13:14:13;;;;;;;1.48;0.60;;;;;;;;;;5023267;28;20073;-82
2022/09/02 13:16:43;;;;;;;1.90;0.65;;;;;;;;;;5023636;28;20042;-80
2022/09/02 13:19:31;;;;;;;1.73;0.70;;;;;;;;;;5021271;28;20061;-81
2022/09/02 13:21:58;;;;;;;1.63;0.63;;;;;;;;;;5027076;28;20050;-81
2022/09/02 13:24:30;;;;;;;2.05;0.70;;;;;;;;;;5008198;28;20061;-83
2022/09/02 13:27:18;;;;;;;2.38;0.82;;;;;;;;;;5026482;28;20065;-82
2022/09/02 13:29:45;;;;;;;2.72;0.63;;;;;;;;;;5026167;28;20061;-80
2022/09/02 13:32:14;;;;;;;2.22;0.70;;;;;;;;;;5028958;28;20049;-81
2022/09/02 13:34:45;;;;;;;2.45;1.00;;;;;;;;;;5025172;28;20054;-81
2022/09/02 13:37:25;;;;;;;2.30;0.70;;;;;;;;;;5023491;28;20061;-81
2022/09/02 13:39:52;;;;;;;1.13;0.65;;;;;;;;;;5023574;28;20052;-80
2022/09/02 13:42:21;;;;;;;1.73;0.77;;;;;;;;;;5026607;28;20041;-82
2022/09/02 13:44:48;;;;;;;3.33;0.70;;;;;;;;;;5025787;28;20042;-82
2022/09/02 13:47:16;;;;;;;1.98;0.50;;;;;;;;;;5025331;28;20060;-82
2022/09/02 13:49:44;;;;;;;6.57;0.80;;;;;;;;;;5030544;28;20137;-81
2022/09/02 13:52:20;;;;;;;1.58;0.60;;;;;;;;;;5013406;28;20044;-83
2022/09/02 13:55:09;;;;;;;4.35;0.70;;;;;;;;;;5030294;28;20117;-82
2022/09/02 13:57:37;;;;;;;2.65;0.80;;;;;;;;;;5029517;28;20490;-81
2022/09/02 14:00:05;;;;;;;4.75;0.50;;;;;;;;;;5012346;28;20057;-81
2022/09/02 14:02:33;;;;;;;4.25;0.63;;;;;;;;;;5027360;28;20520;-83
2022/09/02 14:05:14;;;;;;;2.53;0.88;;;;;;;;;;5010479;28;20086;-81
2022/09/02 14:07:43;;;;;;;1.70;0.80;;;;;;;;;;5010013;28;20049;-81
2022/09/02 14:10:12;;;;;;;5.00;1.02;;;;;;;;;;5027044;28;20078;-82
2022/09/02 14:12:39;;;;;;;4.05;0.82;;;;;;;;;;5027667;28;20057;-81
2022/09/02 14:15:06;;;;;;;2.20;0.85;;;;;;;;;;5029170;28;20069;-81
2022/09/02 14:17:34;;;;;;;1.00;0.60;;;;;;;;;;5028741;28;20046;-80
2022/09/02 14:20:07;;;;;;;3.78;0.57;;;;;;;;;;5028832;28;20050;-82
2022/09/02 14:22:34;;;;;;;1.30;0.60;;;;;;;;;;5028895;28;20061;-82
2022/09/02 14:25:27;;;;;;;3.53;0.68;;;;;;;;;;5030183;28;20157;-82
2022/09/02 14:27:54;;;;;;;2.58;0.70;;;;;;;;;;5027005;28;20077;-81
2022/09/02 14:30:34;;;;;;;4.03;0.70;;;;;;;;;;5030380;28;20132;-82
2022/09/02 14:33:19;;;;;;;2.15;0.68;;;;;;;;;;5034559;28;20125;-83
2022/09/02 14:35:58;;;;;;;2.13;0.60;;;;;;;;;;5018372;28;20098;-82
2022/09/02 14:38:25;;;;;;;3.20;0.60;;;;;;;;;;5029674;28;20422;-84
2022/09/02 14:41:09;;;;;;;0.98;0.50;;;;;;;;;;5029568;28;20049;-84
2022/09/02 14:43:49;;;;;;;2.17;0.60;;;;;;;;;;5029254;28;20070;-82
2022/09/02 14:46:21;;;;;;;2.95;0.90;;;;;;;;;;5030277;28;20042;-81
2022/09/02 14:49:11;;;;;;;1.48;0.73;;;;;;;;;;5028884;28;20096;-83
2022/09/02 14:51:51;;;;;;;1.55;0.80;;;;;;;;;;5025203;28;20033;-85
2022/09/02 14:54:38;;;;;;;1.25;0.60;;;;;;;;;;5028630;28;20070;-83
2022/09/02 14:57:18;;;;;;;6.15;0.82;;;;;;;;;;5029029;28;20046;-83
2022/09/02 14:59:44;;;;;;;0.65;0.50;;;;;;;;;;5027381;28;20046;-81
2022/09/02 15:02:43;;;;;;;4.65;0.60;;;;;;;;;;5029357;28;20108;-83
2022/09/02 15:05:12;;;;;;;3.22;0.63;;;;;;;;;;4993651;28;20169;-79
2022/09/02 15:07:39;;;;;;;1.55;0.80;;;;;;;;;;5025260;28;20056;-80
2022/09/02 15:10:08;;;;;;;5.03;0.70;;;;;;;;;;5027649;28;20072;-81
2022/09/02 15:12:42;;;;;;;2.10;0.80;;;;;;;;;;5028074;28;20073;-82